createdAt,value
2017-04-03T00:00:05.934Z,37.3
2017-04-03T00:02:05.618Z,37
2017-04-03T00:04:08.233Z,37
2017-04-03T00:06:06.087Z,37
2017-04-03T00:08:05.812Z,37
2017-04-03T00:10:08.177Z,37
2017-04-03T00:12:05.979Z,37
2017-04-03T00:14:05.215Z,37
2017-04-03T00:16:06.221Z,37
2017-04-03T00:18:13.236Z,37
2017-04-03T00:20:05.906Z,37
2017-04-03T00:22:05.978Z,37
2017-04-03T00:24:05.667Z,37
2017-04-03T00:26:05.364Z,37
2017-04-03T00:28:05.201Z,37
2017-04-03T00:30:05.940Z,37
2017-04-03T00:32:05.199Z,37.1
2017-04-03T00:34:11.342Z,37
2017-04-03T00:36:07.661Z,37
2017-04-03T00:38:20.709Z,37
2017-04-03T00:40:06.159Z,37
2017-04-03T00:42:05.919Z,37
2017-04-03T00:44:05.667Z,37
2017-04-03T00:46:10.794Z,37
2017-04-03T00:48:05.488Z,37
2017-04-03T00:50:05.193Z,37
2017-04-03T00:52:06.289Z,37
2017-04-03T00:54:08.638Z,37
2017-04-03T00:56:05.344Z,37
2017-04-03T00:58:05.304Z,37.1
2017-04-03T01:00:06.024Z,36.8
2017-04-03T01:02:10.323Z,37
2017-04-03T01:04:06.419Z,37
2017-04-03T01:06:05.069Z,37
2017-04-03T01:08:08.274Z,37
2017-04-03T01:10:06.357Z,36.8
2017-04-03T01:12:05.626Z,36.8
2017-04-03T01:14:05.323Z,37.1
2017-04-03T01:16:05.154Z,36.8
2017-04-03T01:18:07.626Z,36.8
2017-04-03T01:20:05.854Z,36.8
2017-04-03T01:22:08.245Z,36.9
2017-04-03T01:24:05.965Z,36.9
2017-04-03T01:26:05.869Z,37
2017-04-03T01:28:05.986Z,36.8
2017-04-03T01:30:05.632Z,36.9
2017-04-03T01:32:10.469Z,37
2017-04-03T01:34:08.647Z,36.8
2017-04-03T01:36:05.320Z,36.8
2017-04-03T01:38:06.118Z,37
2017-04-03T01:40:06.158Z,36.9
2017-04-03T01:42:06.962Z,37
2017-04-03T01:44:05.223Z,37
2017-04-03T01:46:11.139Z,36.7
2017-04-03T01:48:07.990Z,37
2017-04-03T01:50:10.791Z,36.9
2017-04-03T01:52:05.816Z,37
2017-04-03T01:54:05.563Z,37
2017-04-03T01:56:10.389Z,37
2017-04-03T01:58:05.894Z,37
2017-04-03T02:00:05.574Z,37
2017-04-03T02:02:05.279Z,37
2017-04-03T02:04:06.009Z,37.1
2017-04-03T02:06:10.776Z,37
2017-04-03T02:08:08.630Z,36.8
2017-04-03T02:10:10.743Z,37
2017-04-03T02:12:07.928Z,36.8
2017-04-03T02:14:05.993Z,36.8
2017-04-03T02:16:06.572Z,37
2017-04-03T02:18:08.027Z,36.8
2017-04-03T02:20:05.886Z,36.8
2017-04-03T02:22:06.530Z,36.8
2017-04-03T02:24:12.814Z,36.9
2017-04-03T02:26:05.514Z,36.8
2017-04-03T02:28:06.113Z,36.9
2017-04-03T02:30:05.950Z,36.8
2017-04-03T02:32:08.254Z,36.9
2017-04-03T02:34:06.717Z,36.9
2017-04-03T02:36:08.063Z,36.9
2017-04-03T02:38:05.817Z,36.9
2017-04-03T02:40:07.893Z,36.9
2017-04-03T02:42:05.786Z,36.9
2017-04-03T02:44:05.497Z,36.9
2017-04-03T02:46:08.406Z,36.9
2017-04-03T02:48:05.076Z,36.9
2017-04-03T02:50:10.810Z,36.7
2017-04-03T02:52:05.673Z,36.9
2017-04-03T02:54:12.949Z,36.9
2017-04-03T02:56:07.697Z,36.9
2017-04-03T02:58:05.521Z,36.8
2017-04-03T03:00:05.810Z,36.9
2017-04-03T03:02:05.875Z,36.9
2017-04-03T03:04:05.701Z,36.9
2017-04-03T03:06:06.024Z,36.9
2017-04-03T03:08:05.245Z,36.7
2017-04-03T03:10:05.671Z,36.7
2017-04-03T03:12:05.390Z,36.7
2017-04-03T03:14:05.108Z,36.7
2017-04-03T03:16:06.161Z,36.7
2017-04-03T03:18:05.391Z,36.7
2017-04-03T03:20:05.112Z,36.7
2017-04-03T03:22:06.524Z,36.7
2017-04-03T03:24:07.826Z,36.6
2017-04-03T03:26:10.098Z,36.6
2017-04-03T03:28:06.610Z,36.6
2017-04-03T03:30:07.820Z,36.5
2017-04-03T03:32:07.556Z,36.6
2017-04-03T03:34:05.584Z,36.6
2017-04-03T03:36:05.319Z,36.6
2017-04-03T03:38:07.617Z,36.4
2017-04-03T03:40:05.672Z,36.3
2017-04-03T03:42:05.481Z,36.4
2017-04-03T03:44:05.382Z,36.4
2017-04-03T03:46:08.078Z,36.3
2017-04-03T03:48:05.828Z,36.3
2017-04-03T03:50:05.947Z,36.3
2017-04-03T03:52:08.545Z,36.3
2017-04-03T03:54:07.801Z,36.3
2017-04-03T03:56:05.550Z,36.3
2017-04-03T03:58:12.786Z,36.3
2017-04-03T04:00:05.486Z,36.3
2017-04-03T04:02:07.811Z,36.4
2017-04-03T04:04:05.873Z,36.5
2017-04-03T04:06:07.949Z,36.4
2017-04-03T04:08:05.684Z,36.4
2017-04-03T04:10:06.575Z,36.6
2017-04-03T04:12:05.714Z,36.4
2017-04-03T04:14:13.040Z,36.1
2017-04-03T04:16:11.213Z,36.4
2017-04-03T04:18:05.688Z,36.4
2017-04-03T04:20:08.036Z,36.3
2017-04-03T04:22:11.596Z,36.6
2017-04-03T04:24:10.358Z,36.4
2017-04-03T04:26:08.172Z,36.3
2017-04-03T04:28:08.895Z,36.4
2017-04-03T04:30:13.682Z,37.2
2017-04-03T04:32:05.813Z,36.9
2017-04-03T04:34:05.791Z,36.5
2017-04-03T04:36:05.510Z,36.4
2017-04-03T04:38:08.967Z,36.4
2017-04-03T04:40:06.113Z,36.4
2017-04-03T04:42:05.827Z,36.4
2017-04-03T04:44:05.106Z,36.1
2017-04-03T04:46:06.163Z,36.3
2017-04-03T04:48:05.887Z,36.2
2017-04-03T04:50:05.606Z,36.2
2017-04-03T04:52:05.610Z,36.1
2017-04-03T04:54:05.467Z,36.2
2017-04-03T04:56:05.213Z,36.3
2017-04-03T04:58:08.817Z,36.2
2017-04-03T05:00:05.485Z,36.1
2017-04-03T05:02:05.187Z,36.1
2017-04-03T05:04:06.006Z,36.4
2017-04-03T05:06:08.191Z,36.1
2017-04-03T05:08:05.887Z,36.1
2017-04-03T05:10:08.496Z,36.1
2017-04-03T05:12:10.284Z,36.1
2017-04-03T05:14:08.050Z,36.1
2017-04-03T05:16:08.623Z,36.1
2017-04-03T05:18:05.567Z,36.1
2017-04-03T05:20:05.829Z,36.1
2017-04-03T05:22:05.707Z,36.1
2017-04-03T05:24:07.913Z,36.1
2017-04-03T05:26:06.405Z,36.1
2017-04-03T05:28:07.831Z,36.1
2017-04-03T05:30:08.142Z,36.1
2017-04-03T05:32:05.895Z,36.1
2017-04-03T05:34:05.947Z,36.1
2017-04-03T05:36:08.217Z,35.9
2017-04-03T05:38:08.496Z,35.9
2017-04-03T05:40:08.196Z,36.2
2017-04-03T05:42:06.359Z,36
2017-04-03T05:44:05.041Z,36.1
2017-04-03T05:46:11.159Z,36.2
2017-04-03T05:48:05.864Z,36.2
2017-04-03T05:50:05.560Z,36.1
2017-04-03T05:52:05.586Z,35.9
2017-04-03T05:54:05.276Z,36.1
2017-04-03T05:56:06.246Z,36.3
2017-04-03T05:58:06.366Z,36.3
2017-04-03T06:00:05.112Z,36
2017-04-03T06:02:13.472Z,36.1
2017-04-03T06:04:05.310Z,36.4
2017-04-03T06:06:05.050Z,36.4
2017-04-03T06:08:05.822Z,36.2
2017-04-03T06:10:05.642Z,36.2
2017-04-03T06:12:05.857Z,36.2
2017-04-03T06:14:10.900Z,36.2
2017-04-03T06:16:06.684Z,36.2
2017-04-03T06:18:05.577Z,36.2
2017-04-03T06:20:10.386Z,36.2
2017-04-03T06:22:05.259Z,36.2
2017-04-03T06:24:15.589Z,36.4
2017-04-03T06:26:05.276Z,36.4
2017-04-03T06:28:12.146Z,36.2
2017-04-03T06:30:08.210Z,36.5
2017-04-03T06:32:05.909Z,36.5
2017-04-03T06:34:05.790Z,36.5
2017-04-03T06:36:05.475Z,36.5
2017-04-03T06:38:07.767Z,36.4
2017-04-03T06:40:06.344Z,36.4
2017-04-03T06:42:10.136Z,36.3
2017-04-03T06:44:08.408Z,36.4
2017-04-03T06:46:05.812Z,36.4
2017-04-03T06:48:10.505Z,36.4
2017-04-03T06:50:05.690Z,36.4
2017-04-03T06:52:05.714Z,36.1
2017-04-03T06:54:05.446Z,36.1
2017-04-03T06:56:05.171Z,36.1
2017-04-03T06:58:09.144Z,36.1
2017-04-03T07:00:05.346Z,36.1
2017-04-03T07:02:06.183Z,36.1
2017-04-03T07:04:06.296Z,36.1
2017-04-03T07:06:06.996Z,36.1
2017-04-03T07:08:05.841Z,36.1
2017-04-03T07:10:05.985Z,36.1
2017-04-03T07:12:05.660Z,36.1
2017-04-03T07:14:05.341Z,36.1
2017-04-03T07:16:05.404Z,36.1
2017-04-03T07:18:10.741Z,36.1
2017-04-03T07:20:05.426Z,35.9
2017-04-03T07:22:06.137Z,36.1
2017-04-03T07:24:05.844Z,36.1
2017-04-03T07:26:08.062Z,36.2
2017-04-03T07:28:06.084Z,36.2
2017-04-03T07:30:05.317Z,36.1
2017-04-03T07:32:05.505Z,36.2
2017-04-03T07:34:06.093Z,36.1
2017-04-03T07:36:18.451Z,35.9
2017-04-03T07:38:05.116Z,36.1
2017-04-03T07:40:05.947Z,36.1
2017-04-03T07:42:05.632Z,36.1
2017-04-03T07:44:07.930Z,36.1
2017-04-03T07:46:07.345Z,35.9
2017-04-03T07:48:05.045Z,36.1
2017-04-03T07:50:08.367Z,35.9
2017-04-03T07:52:05.402Z,35.9
2017-04-03T07:54:05.707Z,35.9
2017-04-03T07:56:05.477Z,35.9
2017-04-03T07:58:10.409Z,35.9
2017-04-03T08:00:05.110Z,35.9
2017-04-03T08:02:05.785Z,36
2017-04-03T08:04:06.201Z,35.9
2017-04-03T08:06:11.058Z,36.2
2017-04-03T08:08:05.844Z,36.1
2017-04-03T08:10:05.767Z,36.2
2017-04-03T08:12:06.011Z,36.1
2017-04-03T08:14:05.273Z,36.1
2017-04-03T08:16:13.754Z,36.1
2017-04-03T08:18:05.709Z,36.1
2017-04-03T08:20:05.907Z,36
2017-04-03T08:22:08.585Z,36
2017-04-03T08:24:07.781Z,36.1
2017-04-03T08:26:07.984Z,35.9
2017-04-03T08:28:06.028Z,36.1
2017-04-03T08:30:05.723Z,36.3
2017-04-03T08:32:05.442Z,36.1
2017-04-03T08:34:05.368Z,36.3
2017-04-03T08:36:05.065Z,36
2017-04-03T08:38:05.640Z,36.1
2017-04-03T08:40:05.544Z,36.3
2017-04-03T08:42:10.284Z,36.2
2017-04-03T08:44:05.484Z,36
2017-04-03T08:46:08.478Z,36.1
2017-04-03T08:48:05.162Z,35.9
2017-04-03T08:50:08.351Z,36.1
2017-04-03T08:52:05.151Z,36.1
2017-04-03T08:54:05.968Z,36.1
2017-04-03T08:56:08.197Z,36.2
2017-04-03T08:58:05.736Z,36.2
2017-04-03T09:00:10.514Z,36.1
2017-04-03T09:02:07.776Z,36.1
2017-04-03T09:04:06.294Z,36.1
2017-04-03T09:06:08.577Z,35.9
2017-04-03T09:08:05.298Z,36.1
2017-04-03T09:10:05.858Z,36.1
2017-04-03T09:12:08.115Z,36.1
2017-04-03T09:14:05.866Z,36.1
2017-04-03T09:16:08.517Z,36.1
2017-04-03T09:18:05.966Z,36.1
2017-04-03T09:20:07.699Z,36.1
2017-04-03T09:22:06.218Z,35.9
2017-04-03T09:24:05.426Z,35.9
2017-04-03T09:26:05.343Z,35.9
2017-04-03T09:28:05.438Z,35.9
2017-04-03T09:30:05.164Z,36.1
2017-04-03T09:32:05.888Z,35.9
2017-04-03T09:34:05.813Z,36.1
2017-04-03T09:36:05.536Z,36.1
2017-04-03T09:38:07.807Z,36.1
2017-04-03T09:40:05.188Z,36.1
2017-04-03T09:42:11.114Z,35.9
2017-04-03T09:44:06.849Z,35.9
2017-04-03T09:46:05.833Z,35.9
2017-04-03T09:48:08.024Z,36.1
2017-04-03T09:50:05.833Z,35.9
2017-04-03T09:52:06.000Z,35.9
2017-04-03T09:54:05.292Z,35.9
2017-04-03T09:56:05.546Z,35.9
2017-04-03T09:58:06.808Z,36.1
2017-04-03T10:00:05.557Z,36.1
2017-04-03T10:02:05.613Z,36.1
2017-04-03T10:04:06.412Z,36.1
2017-04-03T10:06:05.229Z,36.1
2017-04-03T10:08:05.987Z,36.1
2017-04-03T10:10:08.560Z,36.4
2017-04-03T10:12:08.370Z,36.5
2017-04-03T10:14:06.189Z,36.5
2017-04-03T10:16:06.574Z,36.5
2017-04-03T10:18:05.738Z,36.5
2017-04-03T10:20:05.548Z,36.5
2017-04-03T10:22:07.918Z,36.3
2017-04-03T10:24:15.324Z,36.3
2017-04-03T10:26:05.015Z,36.3
2017-04-03T10:28:06.082Z,36.3
2017-04-03T10:30:05.646Z,36.3
2017-04-03T10:32:05.053Z,36.3
2017-04-03T10:34:08.392Z,36.3
2017-04-03T10:36:07.688Z,36.3
2017-04-03T10:38:08.093Z,36.3
2017-04-03T10:40:05.439Z,36.6
2017-04-03T10:42:05.761Z,36.3
2017-04-03T10:44:05.818Z,36.6
2017-04-03T10:46:06.896Z,36.6
2017-04-03T10:48:05.728Z,36.6
2017-04-03T10:50:05.566Z,36.6
2017-04-03T10:52:06.226Z,36.6
2017-04-03T10:54:05.167Z,36.6
2017-04-03T10:56:06.465Z,36.6
2017-04-03T10:58:05.920Z,36.6
2017-04-03T11:00:05.706Z,36.6
2017-04-03T11:02:05.487Z,36.8
2017-04-03T11:04:05.294Z,36.8
2017-04-03T11:06:07.594Z,36.8
2017-04-03T11:08:05.265Z,36.8
2017-04-03T11:10:11.181Z,37
2017-04-03T11:12:10.929Z,37.3
2017-04-03T11:14:10.726Z,37.7
2017-04-03T11:16:05.586Z,37.7
2017-04-03T11:18:05.857Z,38.2
2017-04-03T11:20:05.038Z,38.4
2017-04-03T11:22:09.029Z,38.3
2017-04-03T11:24:08.282Z,38
2017-04-03T11:26:08.538Z,38
2017-04-03T11:28:06.166Z,38
2017-04-03T11:30:05.870Z,37.9
2017-04-03T11:32:05.199Z,38
2017-04-03T11:34:05.618Z,37.7
2017-04-03T11:36:05.777Z,37.5
2017-04-03T11:38:05.785Z,37.9
2017-04-03T11:40:05.921Z,37.8
2017-04-03T11:42:05.751Z,37.9
2017-04-03T11:44:05.338Z,39.1
2017-04-03T11:46:05.447Z,39
2017-04-03T11:48:06.249Z,39.2
2017-04-03T11:50:05.838Z,40
2017-04-03T11:52:06.319Z,39.4
2017-04-03T11:54:05.052Z,39
2017-04-03T11:56:10.791Z,39
2017-04-03T11:58:05.758Z,39
2017-04-03T12:00:13.052Z,38.4
2017-04-03T12:02:05.849Z,38.4
2017-04-03T12:04:16.271Z,38.3
2017-04-03T12:06:05.417Z,38.3
2017-04-03T12:08:05.167Z,38.5
2017-04-03T12:10:06.553Z,38.6
2017-04-03T12:12:05.692Z,38.6
2017-04-03T12:14:07.799Z,38.4
2017-04-03T12:16:06.517Z,38.4
2017-04-03T12:18:07.998Z,38.5
2017-04-03T12:20:05.947Z,38.5
2017-04-03T12:22:08.779Z,38.9
2017-04-03T12:24:05.297Z,38.8
2017-04-03T12:26:05.479Z,38.8
2017-04-03T12:28:08.403Z,38.7
2017-04-03T12:30:05.739Z,38.6
2017-04-03T12:32:08.154Z,38.7
2017-04-03T12:34:05.923Z,38.7
2017-04-03T12:36:06.034Z,38.6
2017-04-03T12:38:05.628Z,39
2017-04-03T12:40:08.027Z,39
2017-04-03T12:42:07.776Z,39.1
2017-04-03T12:44:08.012Z,39.1
2017-04-03T12:46:05.932Z,39.3
2017-04-03T12:48:07.731Z,39.1
2017-04-03T12:50:05.388Z,39.1
2017-04-03T12:52:08.030Z,39.3
2017-04-03T12:54:11.144Z,39.4
2017-04-03T12:56:05.833Z,39.4
2017-04-03T12:58:07.929Z,39.3
2017-04-03T13:00:05.630Z,39.2
2017-04-03T13:02:05.411Z,39.5
2017-04-03T13:04:06.432Z,39.9
2017-04-03T13:06:08.174Z,39.6
2017-04-03T13:08:08.466Z,39.7
2017-04-03T13:10:08.864Z,39.9
2017-04-03T13:12:10.665Z,39.4
2017-04-03T13:14:05.422Z,39.6
2017-04-03T13:16:05.442Z,39.5
2017-04-03T13:18:07.862Z,39.7
2017-04-03T13:20:05.550Z,39.7
2017-04-03T13:22:05.375Z,39.8
2017-04-03T13:24:05.096Z,39.8
2017-04-03T13:26:06.552Z,39.8
2017-04-03T13:28:05.467Z,39.7
2017-04-03T13:30:05.804Z,39.3
2017-04-03T13:32:05.526Z,39.1
2017-04-03T13:34:06.402Z,39.1
2017-04-03T13:36:05.053Z,39
2017-04-03T13:38:05.738Z,39.3
2017-04-03T13:40:05.797Z,37.7
2017-04-03T13:42:05.607Z,38
2017-04-03T13:44:10.334Z,39.5
2017-04-03T13:46:05.680Z,39.5
2017-04-03T13:48:05.758Z,38.8
2017-04-03T13:50:05.505Z,39.4
2017-04-03T13:52:05.592Z,39.3
2017-04-03T13:54:05.257Z,39.3
2017-04-03T13:56:05.976Z,38.6
2017-04-03T13:58:06.102Z,39.1
2017-04-03T14:00:08.401Z,39.1
2017-04-03T14:02:05.309Z,39.1
2017-04-03T14:04:06.130Z,39.1
2017-04-03T14:06:05.112Z,38.8
2017-04-03T14:08:10.366Z,38.6
2017-04-03T14:10:08.532Z,38.6
2017-04-03T14:12:05.256Z,38.6
2017-04-03T14:14:06.834Z,39.3
2017-04-03T14:16:10.980Z,38.7
2017-04-03T14:18:05.956Z,38.8
2017-04-03T14:20:05.656Z,39.2
2017-04-03T14:22:10.816Z,38.9
2017-04-03T14:24:12.687Z,39.1
2017-04-03T14:26:05.447Z,39.1
2017-04-03T14:28:05.427Z,38.2
2017-04-03T14:30:05.239Z,37.9
2017-04-03T14:32:05.930Z,37.9
2017-04-03T14:34:06.341Z,38.2
2017-04-03T14:36:05.093Z,38.5
2017-04-03T14:38:05.788Z,38.5
2017-04-03T14:40:05.807Z,38.6
2017-04-03T14:42:05.004Z,38.9
2017-04-03T14:44:05.681Z,38
2017-04-03T14:46:06.068Z,38.9
2017-04-03T14:48:05.798Z,37.7
2017-04-03T14:50:05.506Z,39.2
2017-04-03T14:52:05.974Z,39.3
2017-04-03T14:54:05.674Z,39.7
2017-04-03T14:56:05.366Z,37.4
2017-04-03T14:58:05.269Z,38.4
2017-04-03T15:00:06.006Z,37.5
2017-04-03T15:02:06.133Z,37.6
2017-04-03T15:04:06.238Z,38.5
2017-04-03T15:06:05.920Z,39.2
2017-04-03T15:08:08.348Z,37.3
2017-04-03T15:10:05.320Z,37.3
2017-04-03T15:12:05.022Z,38.7
2017-04-03T15:14:05.744Z,38.4
2017-04-03T15:16:05.557Z,38.1
2017-04-03T15:18:09.054Z,39.2
2017-04-03T15:20:05.732Z,39.2
2017-04-03T15:22:07.480Z,39.1
2017-04-03T15:24:05.237Z,40.5
2017-04-03T15:26:05.903Z,40.6
2017-04-03T15:28:11.004Z,40.8
2017-04-03T15:30:05.634Z,40.9
2017-04-03T15:32:07.855Z,40.6
2017-04-03T15:34:06.184Z,40.6
2017-04-03T15:36:05.063Z,40.8
2017-04-03T15:38:05.719Z,40.3
2017-04-03T15:40:05.821Z,40.4
2017-04-03T15:42:05.459Z,40.6
2017-04-03T15:44:05.724Z,40.5
2017-04-03T15:46:06.744Z,40.3
2017-04-03T15:48:05.491Z,37.9
2017-04-03T15:50:05.400Z,39.2
2017-04-03T15:52:08.037Z,40.1
2017-04-03T15:54:05.741Z,40.1
2017-04-03T15:56:10.733Z,40.5
2017-04-03T15:58:06.568Z,40.5
2017-04-03T16:00:05.286Z,39.7
2017-04-03T16:02:06.006Z,40.4
2017-04-03T16:04:06.602Z,40.4
2017-04-03T16:06:05.460Z,39.5
2017-04-03T16:08:10.214Z,41.2
2017-04-03T16:10:05.371Z,41
2017-04-03T16:12:05.026Z,41.4
2017-04-03T16:14:05.705Z,41.3
2017-04-03T16:16:11.080Z,39.7
2017-04-03T16:18:05.202Z,39.7
2017-04-03T16:20:08.499Z,40.7
2017-04-03T16:22:05.625Z,40.8
2017-04-03T16:24:05.341Z,40.9
2017-04-03T16:26:05.015Z,40.5
2017-04-03T16:28:05.571Z,38.4
2017-04-03T16:30:05.308Z,39.8
2017-04-03T16:32:05.989Z,39.7
2017-04-03T16:34:05.556Z,40.2
2017-04-03T16:36:05.261Z,40.9
2017-04-03T16:38:08.609Z,39.8
2017-04-03T16:40:05.606Z,39.9
2017-04-03T16:42:05.393Z,40.4
2017-04-03T16:44:05.057Z,40
2017-04-03T16:46:06.517Z,40.2
2017-04-03T16:48:05.372Z,40.1
2017-04-03T16:50:05.781Z,39.9
2017-04-03T16:52:13.410Z,40.2
2017-04-03T16:54:06.485Z,40.4
2017-04-03T16:56:05.453Z,40.2
2017-04-03T16:58:05.764Z,40.6
2017-04-03T17:00:15.827Z,41
2017-04-03T17:02:05.520Z,41
2017-04-03T17:04:06.813Z,41.2
2017-04-03T17:06:05.422Z,39.3
2017-04-03T17:08:06.697Z,40.9
2017-04-03T17:10:05.921Z,40.6
2017-04-03T17:12:05.631Z,39.3
2017-04-03T17:14:05.688Z,38.4
2017-04-03T17:16:08.518Z,40.4
2017-04-03T17:18:05.681Z,40.2
2017-04-03T17:20:09.921Z,40
2017-04-03T17:22:05.470Z,40.2
2017-04-03T17:24:05.155Z,40.6
2017-04-03T17:26:11.161Z,41.1
2017-04-03T17:28:06.077Z,41.2
2017-04-03T17:30:08.272Z,41.1
2017-04-03T17:32:06.934Z,41.1
2017-04-03T17:34:12.711Z,41.1
2017-04-03T17:36:08.377Z,41
2017-04-03T17:38:07.776Z,41.3
2017-04-03T17:40:07.323Z,41.3
2017-04-03T17:42:08.663Z,41
2017-04-03T17:44:07.975Z,41.2
2017-04-03T17:46:06.069Z,41
2017-04-03T17:48:05.770Z,41.3
2017-04-03T17:50:05.046Z,41.3
2017-04-03T17:52:06.678Z,41.3
2017-04-03T17:54:10.432Z,41.6
2017-04-03T17:56:05.310Z,41.4
2017-04-03T17:58:06.362Z,41.1
2017-04-03T18:00:08.719Z,41.4
2017-04-03T18:02:05.341Z,41.5
2017-04-03T18:04:05.217Z,42
2017-04-03T18:06:05.909Z,41.8
2017-04-03T18:08:05.877Z,42.1
2017-04-03T18:10:09.033Z,41.6
2017-04-03T18:12:05.689Z,41.9
2017-04-03T18:14:06.346Z,41.8
2017-04-03T18:16:07.787Z,40.8
2017-04-03T18:18:05.679Z,40.8
2017-04-03T18:20:05.356Z,40.8
2017-04-03T18:22:05.207Z,41.2
2017-04-03T18:24:05.914Z,41
2017-04-03T18:26:05.171Z,40.9
2017-04-03T18:28:08.522Z,40.5
2017-04-03T18:30:11.441Z,40.4
2017-04-03T18:32:05.179Z,40.4
2017-04-03T18:34:06.256Z,40.4
2017-04-03T18:36:05.965Z,40.4
2017-04-03T18:38:05.688Z,40.7
2017-04-03T18:40:05.560Z,40.7
2017-04-03T18:42:06.444Z,40.4
2017-04-03T18:44:07.905Z,39.7
2017-04-03T18:46:05.986Z,39.6
2017-04-03T18:48:05.684Z,39.8
2017-04-03T18:50:05.743Z,39.6
2017-04-03T18:52:05.573Z,39.1
2017-04-03T18:54:05.842Z,39.5
2017-04-03T18:56:08.102Z,39.3
2017-04-03T18:58:06.173Z,39.3
2017-04-03T19:00:05.916Z,39.3
2017-04-03T19:02:09.044Z,39.3
2017-04-03T19:04:08.130Z,39.3
2017-04-03T19:06:05.809Z,39.3
2017-04-03T19:08:05.089Z,39.3
2017-04-03T19:10:18.717Z,39.1
2017-04-03T19:12:07.946Z,39.1
2017-04-03T19:14:05.662Z,39.1
2017-04-03T19:16:05.691Z,39.1
2017-04-03T19:18:05.906Z,39.1
2017-04-03T19:20:13.210Z,39.1
2017-04-03T19:22:06.309Z,39.1
2017-04-03T19:24:12.631Z,38.8
2017-04-03T19:26:06.359Z,39.1
2017-04-03T19:28:05.241Z,39.1
2017-04-03T19:30:05.984Z,38.6
2017-04-03T19:32:13.255Z,38.8
2017-04-03T19:34:07.581Z,38.8
2017-04-03T19:36:08.797Z,38.7
2017-04-03T19:38:13.304Z,38.8
2017-04-03T19:40:06.070Z,38.8
2017-04-03T19:42:15.460Z,38.8
2017-04-03T19:44:07.726Z,38.8
2017-04-03T19:46:10.653Z,38.8
2017-04-03T19:48:10.425Z,38.8
2017-04-03T19:50:05.471Z,38.8
2017-04-03T19:52:05.327Z,38.8
2017-04-03T19:54:05.579Z,39.1
2017-04-03T19:56:10.546Z,38.8
2017-04-03T19:58:05.885Z,38.8
2017-04-03T20:00:08.192Z,38.8
2017-04-03T20:02:06.031Z,38.8
2017-04-03T20:04:08.613Z,38.6
2017-04-03T20:06:08.156Z,38.6
2017-04-03T20:08:05.072Z,38.8
2017-04-03T20:10:05.920Z,38.6
2017-04-03T20:12:08.164Z,38.6
2017-04-03T20:14:05.913Z,38.6
2017-04-03T20:16:05.979Z,38.6
2017-04-03T20:18:05.955Z,38.6
2017-04-03T20:20:06.004Z,38.6
2017-04-03T20:22:06.609Z,38.9
2017-04-03T20:24:05.325Z,39
2017-04-03T20:26:05.029Z,39.1
2017-04-03T20:28:06.327Z,39
2017-04-03T20:30:07.542Z,38.6
2017-04-03T20:32:05.207Z,38.6
2017-04-03T20:34:06.248Z,38.6
2017-04-03T20:36:05.864Z,38.6
2017-04-03T20:38:08.973Z,38.4
2017-04-03T20:40:06.436Z,38.6
2017-04-03T20:42:05.097Z,38.4
2017-04-03T20:44:05.785Z,38.6
2017-04-03T20:46:05.810Z,38.6
2017-04-03T20:48:05.069Z,38.6
2017-04-03T20:50:05.848Z,38.6
2017-04-03T20:52:06.071Z,39.1
2017-04-03T20:54:05.876Z,38.6
2017-04-03T20:56:05.595Z,39.1
2017-04-03T20:58:11.634Z,38.6
2017-04-03T21:00:07.941Z,38.4
2017-04-03T21:02:05.385Z,38.4
2017-04-03T21:04:05.397Z,38.4
2017-04-03T21:06:05.675Z,38.4
2017-04-03T21:08:05.348Z,38.4
2017-04-03T21:10:05.393Z,38.4
2017-04-03T21:12:05.302Z,38.4
2017-04-03T21:14:06.015Z,38.4
2017-04-03T21:16:06.006Z,38.2
2017-04-03T21:18:05.445Z,38.2
2017-04-03T21:20:05.193Z,38.2
2017-04-03T21:22:11.256Z,38.2
2017-04-03T21:24:05.912Z,38.2
2017-04-03T21:26:06.675Z,38.8
2017-04-03T21:28:05.528Z,38.6
2017-04-03T21:30:05.241Z,38.6
2017-04-03T21:32:05.067Z,38.7
2017-04-03T21:34:06.017Z,38.4
2017-04-03T21:36:05.934Z,38.9
2017-04-03T21:38:05.613Z,38.6
2017-04-03T21:40:05.728Z,39.1
2017-04-03T21:42:10.618Z,38.6
2017-04-03T21:44:05.287Z,38.7
2017-04-03T21:46:07.132Z,38.4
2017-04-03T21:48:05.863Z,38.9
2017-04-03T21:50:05.573Z,38.2
2017-04-03T21:52:08.077Z,38.4
2017-04-03T21:54:05.794Z,38.5
2017-04-03T21:56:12.688Z,38.5
2017-04-03T21:58:06.581Z,38.5
2017-04-03T22:00:07.821Z,38.2
2017-04-03T22:02:05.097Z,37.9
2017-04-03T22:04:05.915Z,38.2
2017-04-03T22:06:10.682Z,38.3
2017-04-03T22:08:05.436Z,38.5
2017-04-03T22:10:05.357Z,38.3
2017-04-03T22:12:05.083Z,38.2
2017-04-03T22:14:05.908Z,38.3
2017-04-03T22:16:05.872Z,38.3
2017-04-03T22:18:08.270Z,37.9
2017-04-03T22:20:06.089Z,37.9
2017-04-03T22:22:06.289Z,38.5
2017-04-03T22:24:05.017Z,38.5
2017-04-03T22:26:05.712Z,37.9
2017-04-03T22:28:06.263Z,38.6
2017-04-03T22:30:05.958Z,38.5
2017-04-03T22:32:05.727Z,37.7
2017-04-03T22:34:13.267Z,38.1
2017-04-03T22:36:06.003Z,37.8
2017-04-03T22:38:08.228Z,38.5
2017-04-03T22:40:06.249Z,38.7
2017-04-03T22:42:05.485Z,37.9
2017-04-03T22:44:05.244Z,37.9
2017-04-03T22:46:06.162Z,37.7
2017-04-03T22:48:08.373Z,37.7
2017-04-03T22:50:05.574Z,37.7
2017-04-03T22:52:05.525Z,37.7
2017-04-03T22:54:10.348Z,37.7
2017-04-03T22:56:05.081Z,37.5
2017-04-03T22:58:05.925Z,37.7
2017-04-03T23:00:05.161Z,37.5
2017-04-03T23:02:06.175Z,37.5
2017-04-03T23:04:08.774Z,37.5
2017-04-03T23:06:05.024Z,37.5
2017-04-03T23:08:07.821Z,37.5
2017-04-03T23:10:05.670Z,37.3
2017-04-03T23:12:05.357Z,37.5
2017-04-03T23:14:07.574Z,37.5
2017-04-03T23:16:06.169Z,37.3
2017-04-03T23:18:08.614Z,37.5
2017-04-03T23:20:05.933Z,37.3
2017-04-03T23:22:05.933Z,37.5
2017-04-03T23:24:05.143Z,37.3
2017-04-03T23:26:05.357Z,37.3
2017-04-03T23:28:13.019Z,37.3
2017-04-03T23:30:05.725Z,37.3
2017-04-03T23:32:05.459Z,37.3
2017-04-03T23:34:05.506Z,37.3
2017-04-03T23:36:05.210Z,37.3
2017-04-03T23:38:05.896Z,37
2017-04-03T23:40:06.485Z,37.3
2017-04-03T23:42:05.197Z,37
2017-04-03T23:44:05.878Z,37
2017-04-03T23:46:05.774Z,37
2017-04-03T23:48:05.499Z,37
2017-04-03T23:50:05.563Z,37
2017-04-03T23:52:06.712Z,37
2017-04-03T23:54:05.392Z,37
2017-04-03T23:56:05.614Z,37
2017-04-03T23:58:05.496Z,37
